CES7630 ZUXC-PHNL
Flight info
| Callsign | CES7630 |
|---|---|
| Flight time | N/A |
| Altitude | 35100 |
| Route | BOPTU W162 KAKMI W144 IGNAK W179 WFX B213 ESPEG V154 SNF W269 OLPOV B213 WHA R343 PK A593 AKARA/K0913F351 A593 LAMEN/N0494F351 A593 SADLI Y590 BEDAR Y591 FUE Y23 KASTE Y81 TASOT Y57 LIGNI Y816 IPROS Y830 LAPIL OTR13 SEALS DCT 34N153E DCT 34N159E DCT 33N166E DCT 31N173E DCT 29N179E DCT 27N174W DCT 25N168W DCT CANON DCT CANON |
| Aircraft | MD11/H-SDE1E2E3FGHIJ2J3J4J5M1RWXY/LB1D1 |
Departure
| Time | 2026-04-17 14:34 |
|---|---|
| Airport | Xichang Qingshan Airport (ZUXC) |
Arrival
| Time | N/A |
|---|---|
| Airport | Daniel K. Inouye International Airport (PHNL) |
| Time | Latitude | Longitude | Altitude | Speed | Heading |
|---|---|---|---|---|---|
| 2026-04-17 14:12 | 27.98292 | 102.18647 | 5110 ft | 0 kts | 88° |
| 2026-04-17 14:23 | 27.98291 | 102.18625 | 5112 ft | 4 kts | 76° |
| 2026-04-17 14:23 | 27.98282 | 102.18598 | 5116 ft | 4 kts | 54° |
| 2026-04-17 14:23 | 27.98271 | 102.18582 | 5116 ft | 4 kts | 51° |
| 2026-04-17 14:24 | 27.98262 | 102.18569 | 5117 ft | 1 kts | 55° |
| 2026-04-17 14:24 | 27.98262 | 102.18568 | 5107 ft | 0 kts | 55° |
| 2026-04-17 14:27 | 27.98266 | 102.18573 | 5110 ft | 2 kts | 47° |
| 2026-04-17 14:27 | 27.98287 | 102.18586 | 5110 ft | 4 kts | 20° |
| 2026-04-17 14:27 | 27.98324 | 102.18587 | 5110 ft | 6 kts | 0° |
| 2026-04-17 14:27 | 27.98376 | 102.18587 | 5110 ft | 8 kts | 358° |
| 2026-04-17 14:28 | 27.98440 | 102.18585 | 5108 ft | 10 kts | 358° |
| 2026-04-17 14:28 | 27.98520 | 102.18582 | 5106 ft | 12 kts | 358° |
| 2026-04-17 14:28 | 27.98613 | 102.18578 | 5106 ft | 14 kts | 358° |
| 2026-04-17 14:28 | 27.98717 | 102.18574 | 5106 ft | 16 kts | 358° |
| 2026-04-17 14:29 | 27.98831 | 102.18570 | 5109 ft | 17 kts | 358° |
| 2026-04-17 14:29 | 27.98995 | 102.18564 | 5109 ft | 19 kts | 358° |
| 2026-04-17 14:29 | 27.99084 | 102.18560 | 5110 ft | 19 kts | 358° |
| 2026-04-17 14:29 | 27.99202 | 102.18556 | 5110 ft | 16 kts | 358° |
| 2026-04-17 14:30 | 27.99318 | 102.18551 | 5108 ft | 18 kts | 358° |
| 2026-04-17 14:30 | 27.99443 | 102.18547 | 5107 ft | 19 kts | 358° |
| 2026-04-17 14:30 | 27.99579 | 102.18541 | 5107 ft | 20 kts | 358° |
| 2026-04-17 14:30 | 27.99698 | 102.18537 | 5107 ft | 18 kts | 358° |
| 2026-04-17 14:31 | 27.99819 | 102.18532 | 5107 ft | 16 kts | 358° |
| 2026-04-17 14:31 | 27.99938 | 102.18527 | 5107 ft | 18 kts | 358° |
| 2026-04-17 14:31 | 28.00064 | 102.18522 | 5107 ft | 19 kts | 358° |
| 2026-04-17 14:31 | 28.00200 | 102.18516 | 5110 ft | 20 kts | 358° |
| 2026-04-17 14:32 | 28.00345 | 102.18510 | 5110 ft | 21 kts | 358° |
| 2026-04-17 14:32 | 28.00465 | 102.18507 | 5110 ft | 9 kts | 359° |
| 2026-04-17 14:32 | 28.00486 | 102.18496 | 5110 ft | 2 kts | 321° |
| 2026-04-17 14:32 | 28.00492 | 102.18478 | 5114 ft | 4 kts | 289° |
| 2026-04-17 14:33 | 28.00498 | 102.18435 | 5111 ft | 7 kts | 274° |
| 2026-04-17 14:33 | 28.00478 | 102.18375 | 5115 ft | 6 kts | 216° |
| 2026-04-17 14:33 | 28.00400 | 102.18373 | 5114 ft | 35 kts | 179° |
| 2026-04-17 14:33 | 27.99890 | 102.18393 | 5108 ft | 110 kts | 178° |
| 2026-04-17 14:34 | 27.98906 | 102.18434 | 5107 ft | 170 kts | 178° |
| 2026-04-17 14:34 | 27.97618 | 102.18484 | 5172 ft | 201 kts | 178° |
| 2026-04-17 14:34 | 27.96227 | 102.18556 | 5772 ft | 199 kts | 177° |
| 2026-04-17 14:34 | 27.94849 | 102.18645 | 6416 ft | 199 kts | 177° |
| 2026-04-17 14:35 | 27.93460 | 102.18734 | 7043 ft | 200 kts | 177° |
| 2026-04-17 14:35 | 27.92065 | 102.18820 | 7584 ft | 201 kts | 177° |
| 2026-04-17 14:35 | 27.90664 | 102.18888 | 8069 ft | 202 kts | 181° |
| 2026-04-17 14:35 | 27.89273 | 102.18643 | 8524 ft | 208 kts | 197° |
| 2026-04-17 14:36 | 27.87838 | 102.18103 | 8675 ft | 226 kts | 200° |
| 2026-04-17 14:36 | 27.86296 | 102.17572 | 8804 ft | 238 kts | 186° |
| 2026-04-17 14:36 | 27.84701 | 102.17827 | 9334 ft | 237 kts | 160° |
| 2026-04-17 14:36 | 27.83178 | 102.18580 | 9813 ft | 240 kts | 154° |
| 2026-04-17 14:37 | 27.81670 | 102.19415 | 10294 ft | 242 kts | 155° |
| 2026-04-17 14:37 | 27.80178 | 102.20300 | 10728 ft | 244 kts | 149° |
| 2026-04-17 14:37 | 27.78874 | 102.21591 | 10924 ft | 259 kts | 129° |
| 2026-04-17 14:37 | 27.78133 | 102.23493 | 11046 ft | 276 kts | 100° |
| 2026-04-17 14:38 | 27.78293 | 102.25675 | 11188 ft | 288 kts | 73° |
| 2026-04-17 14:38 | 27.79093 | 102.27827 | 11325 ft | 308 kts | 64° |
| 2026-04-17 14:38 | 27.80113 | 102.30061 | 11443 ft | 332 kts | 62° |
| 2026-04-17 14:38 | 27.81219 | 102.32415 | 11591 ft | 355 kts | 62° |
| 2026-04-17 14:39 | 27.82407 | 102.34965 | 11730 ft | 378 kts | 63° |
| 2026-04-17 14:39 | 27.83642 | 102.37653 | 12233 ft | 389 kts | 63° |
| 2026-04-17 14:39 | 27.84884 | 102.40387 | 12925 ft | 394 kts | 64° |
| 2026-04-17 14:39 | 27.86138 | 102.43171 | 13594 ft | 401 kts | 64° |
| 2026-04-17 14:40 | 27.87409 | 102.46005 | 14214 ft | 407 kts | 63° |
| 2026-04-17 14:40 | 27.88688 | 102.48867 | 14888 ft | 410 kts | 63° |
| 2026-04-17 14:40 | 27.89983 | 102.51759 | 15547 ft | 413 kts | 62° |
| 2026-04-17 14:40 | 27.91271 | 102.54625 | 16214 ft | 416 kts | 62° |
| 2026-04-17 14:41 | 27.92592 | 102.57557 | 16835 ft | 419 kts | 62° |
| 2026-04-17 14:41 | 27.93920 | 102.60504 | 17510 ft | 422 kts | 61° |
| 2026-04-17 14:41 | 27.95260 | 102.63475 | 18129 ft | 426 kts | 61° |
| 2026-04-17 14:41 | 27.96611 | 102.66473 | 18717 ft | 429 kts | 61° |
| 2026-04-17 14:42 | 27.97969 | 102.69491 | 19247 ft | 432 kts | 61° |
| 2026-04-17 14:42 | 27.99335 | 102.72530 | 19779 ft | 435 kts | 60° |
| 2026-04-17 14:42 | 28.00708 | 102.75585 | 20349 ft | 437 kts | 61° |
| 2026-04-17 14:42 | 28.02089 | 102.78662 | 20877 ft | 440 kts | 60° |
| 2026-04-17 14:43 | 28.03461 | 102.81719 | 21376 ft | 443 kts | 60° |
| 2026-04-17 14:43 | 28.04860 | 102.84841 | 21873 ft | 447 kts | 60° |
| 2026-04-17 14:43 | 28.06270 | 102.87987 | 22442 ft | 447 kts | 60° |
| 2026-04-17 14:43 | 28.07679 | 102.91138 | 22968 ft | 451 kts | 60° |
| 2026-04-17 14:44 | 28.09100 | 102.94314 | 23418 ft | 455 kts | 60° |
| 2026-04-17 14:44 | 28.10535 | 102.97523 | 23864 ft | 458 kts | 60° |
| 2026-04-17 14:44 | 28.11977 | 103.00752 | 24270 ft | 461 kts | 60° |
| 2026-04-17 14:44 | 28.13430 | 103.04008 | 24669 ft | 464 kts | 60° |
| 2026-04-17 14:45 | 28.14874 | 103.07246 | 25003 ft | 468 kts | 60° |
| 2026-04-17 14:45 | 28.16344 | 103.10548 | 25382 ft | 471 kts | 60° |
| 2026-04-17 14:45 | 28.17822 | 103.13869 | 25802 ft | 474 kts | 61° |
| 2026-04-17 14:45 | 28.19313 | 103.17221 | 26175 ft | 478 kts | 61° |
| 2026-04-17 14:46 | 28.20810 | 103.20591 | 26587 ft | 481 kts | 61° |
| 2026-04-17 14:46 | 28.22318 | 103.23988 | 26952 ft | 483 kts | 61° |
| 2026-04-17 14:46 | 28.23834 | 103.27407 | 27310 ft | 487 kts | 61° |
| 2026-04-17 14:46 | 28.25359 | 103.30848 | 27670 ft | 490 kts | 61° |
| 2026-04-17 14:47 | 28.26887 | 103.34305 | 28048 ft | 492 kts | 62° |
| 2026-04-17 14:47 | 28.28397 | 103.37743 | 28414 ft | 495 kts | 62° |
| 2026-04-17 14:47 | 28.29936 | 103.41249 | 28741 ft | 500 kts | 61° |
| 2026-04-17 14:47 | 28.31500 | 103.44806 | 28865 ft | 508 kts | 61° |
| 2026-04-17 14:48 | 28.33087 | 103.48411 | 29121 ft | 513 kts | 61° |
| 2026-04-17 14:48 | 28.34686 | 103.52041 | 29435 ft | 515 kts | 61° |
| 2026-04-17 14:48 | 28.36294 | 103.55693 | 29745 ft | 519 kts | 61° |
| 2026-04-17 14:48 | 28.37913 | 103.59370 | 30146 ft | 521 kts | 61° |
| 2026-04-17 14:49 | 28.39532 | 103.63055 | 30529 ft | 522 kts | 61° |
| 2026-04-17 14:49 | 28.41129 | 103.66690 | 30923 ft | 521 kts | 62° |
| 2026-04-17 14:49 | 28.42744 | 103.70371 | 31359 ft | 521 kts | 62° |
| 2026-04-17 14:49 | 28.44357 | 103.74049 | 31755 ft | 520 kts | 62° |
| 2026-04-17 14:50 | 28.45970 | 103.77731 | 32116 ft | 521 kts | 62° |
| 2026-04-17 14:50 | 28.47580 | 103.81412 | 32562 ft | 516 kts | 62° |
| 2026-04-17 14:50 | 28.49055 | 103.84797 | 34912 ft | 457 kts | 62° |
| 2026-04-17 14:50 | 28.50471 | 103.88048 | 35120 ft | 465 kts | 61° |
| 2026-04-17 14:51 | 28.53336 | 103.94598 | 35148 ft | 467 kts | 61° |
| 2026-04-17 14:51 | 28.56235 | 104.01242 | 35131 ft | 471 kts | 61° |
| 2026-04-17 14:52 | 28.59138 | 104.07948 | 35118 ft | 472 kts | 61° |
| 2026-04-17 14:52 | 28.62016 | 104.14634 | 35113 ft | 470 kts | 61° |
| 2026-04-17 14:53 | 28.65312 | 104.20949 | 35114 ft | 464 kts | 46° |
| 2026-04-17 14:53 | 28.67496 | 104.23603 | 35095 ft | 456 kts | 35° |
| 2026-04-17 14:53 | 28.70012 | 104.25734 | 35107 ft | 447 kts | 24° |
| 2026-04-17 14:54 | 28.75638 | 104.28362 | 35092 ft | 430 kts | 4° |
| 2026-04-17 14:54 | 28.81462 | 104.28963 | 35101 ft | 415 kts | 349° |
| 2026-04-17 14:55 | 28.87128 | 104.28571 | 35090 ft | 409 kts | 347° |
| 2026-04-17 14:55 | 28.92814 | 104.28130 | 35091 ft | 410 kts | 347° |
| 2026-04-17 14:56 | 28.98513 | 104.27769 | 35081 ft | 411 kts | 348° |
| 2026-04-17 14:56 | 29.04224 | 104.27445 | 35080 ft | 411 kts | 348° |
| 2026-04-17 14:57 | 29.09928 | 104.27130 | 35084 ft | 409 kts | 348° |
| 2026-04-17 14:57 | 29.15572 | 104.26818 | 35083 ft | 409 kts | 348° |
| 2026-04-17 14:58 | 29.21255 | 104.26501 | 35083 ft | 409 kts | 348° |
| 2026-04-17 14:58 | 29.26946 | 104.26241 | 35079 ft | 413 kts | 352° |
| 2026-04-17 14:59 | 29.32736 | 104.26908 | 35080 ft | 422 kts | 359° |
| 2026-04-17 14:59 | 29.38540 | 104.27968 | 35085 ft | 421 kts | 360° |
| 2026-04-17 15:00 | 29.44276 | 104.29005 | 35082 ft | 420 kts | 359° |
| 2026-04-17 15:00 | 29.50050 | 104.30007 | 35083 ft | 420 kts | 359° |
| 2026-04-17 15:01 | 29.55826 | 104.30994 | 35083 ft | 420 kts | 359° |
| 2026-04-17 15:01 | 29.61600 | 104.31981 | 35100 ft | 420 kts | 359° |
| 2026-04-17 15:02 | 29.67299 | 104.32960 | 35080 ft | 414 kts | 359° |
| 2026-04-17 15:02 | 29.72987 | 104.33935 | 35079 ft | 413 kts | 359° |
| 2026-04-17 15:03 | 29.78677 | 104.34908 | 35080 ft | 413 kts | 359° |
| 2026-04-17 15:03 | 29.84367 | 104.35885 | 35076 ft | 413 kts | 359° |
| 2026-04-17 15:04 | 29.90059 | 104.36864 | 35116 ft | 413 kts | 359° |
| 2026-04-17 15:04 | 29.95636 | 104.37832 | 35077 ft | 405 kts | 359° |
| 2026-04-17 15:05 | 30.01203 | 104.38789 | 35079 ft | 405 kts | 359° |
| 2026-04-17 15:05 | 30.06778 | 104.39747 | 35078 ft | 405 kts | 359° |
| 2026-04-17 15:06 | 30.12351 | 104.40711 | 35075 ft | 405 kts | 359° |
| 2026-04-17 15:06 | 30.17886 | 104.41678 | 35110 ft | 405 kts | 360° |
| 2026-04-17 15:07 | 30.23392 | 104.42649 | 35073 ft | 398 kts | 360° |
| 2026-04-17 15:07 | 30.28872 | 104.43607 | 35092 ft | 398 kts | 359° |
| 2026-04-17 15:08 | 30.34353 | 104.44566 | 35094 ft | 398 kts | 360° |
| 2026-04-17 15:08 | 30.39798 | 104.45521 | 35093 ft | 398 kts | 360° |
| 2026-04-17 15:09 | 30.45276 | 104.46484 | 35099 ft | 398 kts | 360° |
| 2026-04-17 15:09 | 30.50754 | 104.47645 | 35083 ft | 405 kts | 6° |
| 2026-04-17 15:10 | 30.56041 | 104.50222 | 35082 ft | 423 kts | 23° |
| 2026-04-17 15:11 | 30.62428 | 104.57609 | 35075 ft | 452 kts | 52° |
| 2026-04-17 15:11 | 30.64977 | 104.64383 | 35070 ft | 465 kts | 68° |
| 2026-04-17 15:12 | 30.66730 | 104.71633 | 35076 ft | 467 kts | 70° |
| 2026-04-17 15:12 | 30.68450 | 104.78892 | 35084 ft | 463 kts | 69° |
| 2026-04-17 15:13 | 30.70220 | 104.85996 | 35077 ft | 461 kts | 68° |
| 2026-04-17 15:13 | 30.72037 | 104.93137 | 35090 ft | 461 kts | 69° |
| 2026-04-17 15:14 | 30.73856 | 105.00285 | 35078 ft | 461 kts | 69° |
| 2026-04-17 15:14 | 30.75669 | 105.07440 | 35077 ft | 462 kts | 69° |
| 2026-04-17 15:15 | 30.77478 | 105.14604 | 35081 ft | 461 kts | 69° |
| 2026-04-17 15:15 | 30.79269 | 105.21715 | 35075 ft | 462 kts | 69° |
| 2026-04-17 15:16 | 30.81070 | 105.28885 | 35094 ft | 462 kts | 69° |
| 2026-04-17 15:16 | 30.82870 | 105.36064 | 35080 ft | 463 kts | 69° |
| 2026-04-17 15:17 | 30.84610 | 105.43219 | 35081 ft | 464 kts | 70° |
| 2026-04-17 15:17 | 30.86174 | 105.50510 | 35100 ft | 465 kts | 71° |
| 2026-04-17 15:18 | 30.87695 | 105.57801 | 35083 ft | 463 kts | 71° |
| 2026-04-17 15:18 | 30.89225 | 105.65076 | 35081 ft | 463 kts | 71° |
| 2026-04-17 15:19 | 30.90757 | 105.72325 | 35076 ft | 465 kts | 71° |
| 2026-04-17 15:19 | 30.92300 | 105.79646 | 35073 ft | 465 kts | 71° |
| 2026-04-17 15:20 | 30.93836 | 105.86961 | 35082 ft | 465 kts | 71° |
| 2026-04-17 15:20 | 30.95369 | 105.94280 | 35074 ft | 465 kts | 71° |
| 2026-04-17 15:21 | 30.96809 | 106.01585 | 35084 ft | 468 kts | 76° |
| 2026-04-17 15:21 | 30.97475 | 106.09178 | 35080 ft | 473 kts | 83° |
| 2026-04-17 15:22 | 30.97842 | 106.16838 | 35076 ft | 474 kts | 83° |
| 2026-04-17 15:22 | 30.98231 | 106.24498 | 35074 ft | 473 kts | 83° |
| 2026-04-17 15:23 | 30.98661 | 106.32149 | 35075 ft | 473 kts | 82° |
| 2026-04-17 15:23 | 30.99099 | 106.39754 | 35087 ft | 474 kts | 83° |
| 2026-04-17 15:24 | 30.99538 | 106.47437 | 35082 ft | 475 kts | 83° |
| 2026-04-17 15:24 | 30.99969 | 106.55129 | 35097 ft | 475 kts | 82° |
| 2026-04-17 15:25 | 31.00393 | 106.62775 | 35082 ft | 473 kts | 82° |
| 2026-04-17 15:25 | 31.00810 | 106.70364 | 35095 ft | 472 kts | 83° |
| 2026-04-17 15:26 | 31.01227 | 106.78018 | 35091 ft | 474 kts | 83° |
| 2026-04-17 15:26 | 31.01639 | 106.85681 | 35089 ft | 474 kts | 83° |
| 2026-04-17 15:27 | 31.02046 | 106.93346 | 35092 ft | 474 kts | 83° |
| 2026-04-17 15:27 | 31.02436 | 107.00965 | 35094 ft | 474 kts | 83° |
| 2026-04-17 15:28 | 31.02812 | 107.08636 | 35100 ft | 474 kts | 83° |
| 2026-04-17 15:28 | 31.03197 | 107.16305 | 35100 ft | 474 kts | 83° |
| 2026-04-17 15:29 | 31.03585 | 107.23974 | 35101 ft | 474 kts | 83° |
| 2026-04-17 15:29 | 31.03968 | 107.31595 | 35102 ft | 474 kts | 84° |
| 2026-04-17 15:30 | 31.04348 | 107.39260 | 35108 ft | 474 kts | 83° |
| 2026-04-17 15:30 | 31.04668 | 107.46941 | 35119 ft | 474 kts | 85° |
| 2026-04-17 15:31 | 31.04882 | 107.54629 | 35118 ft | 474 kts | 85° |
| 2026-04-17 15:31 | 31.05033 | 107.62268 | 35120 ft | 475 kts | 86° |
| 2026-04-17 15:32 | 31.05178 | 107.69957 | 35125 ft | 474 kts | 86° |
| 2026-04-17 15:32 | 31.05322 | 107.77649 | 35128 ft | 474 kts | 86° |
| 2026-04-17 15:33 | 31.05465 | 107.85323 | 35127 ft | 473 kts | 86° |
| 2026-04-17 15:33 | 31.05606 | 107.93003 | 35133 ft | 474 kts | 86° |
| 2026-04-17 15:34 | 31.05742 | 108.00635 | 35132 ft | 474 kts | 86° |
| 2026-04-17 15:34 | 31.05873 | 108.08294 | 35137 ft | 469 kts | 86° |
| 2026-04-17 15:35 | 31.05998 | 108.15892 | 35132 ft | 469 kts | 86° |
| 2026-04-17 15:35 | 31.06121 | 108.23493 | 35135 ft | 469 kts | 86° |
| 2026-04-17 15:36 | 31.06237 | 108.31043 | 35126 ft | 468 kts | 86° |
| 2026-04-17 15:36 | 31.06349 | 108.38629 | 35137 ft | 469 kts | 86° |
| 2026-04-17 15:37 | 31.06459 | 108.46252 | 35140 ft | 471 kts | 87° |
| 2026-04-17 15:37 | 31.06561 | 108.53845 | 35138 ft | 467 kts | 87° |
| 2026-04-17 15:38 | 31.06660 | 108.61376 | 35142 ft | 468 kts | 87° |
| 2026-04-17 15:38 | 31.06737 | 108.68959 | 35145 ft | 468 kts | 87° |
| 2026-04-17 15:39 | 31.06808 | 108.76550 | 35150 ft | 468 kts | 87° |
| 2026-04-17 15:39 | 31.06888 | 108.84133 | 35145 ft | 469 kts | 87° |
| 2026-04-17 15:40 | 31.06969 | 108.91740 | 35151 ft | 468 kts | 87° |
| 2026-04-17 15:40 | 31.07045 | 108.99283 | 35161 ft | 469 kts | 87° |
| 2026-04-17 15:41 | 31.07118 | 109.06879 | 35169 ft | 469 kts | 87° |
| 2026-04-17 15:41 | 31.07186 | 109.14483 | 35168 ft | 469 kts | 88° |
| 2026-04-17 15:42 | 31.07250 | 109.22093 | 35169 ft | 469 kts | 88° |
| 2026-04-17 15:42 | 31.07308 | 109.29696 | 35165 ft | 470 kts | 88° |
| 2026-04-17 15:43 | 31.07363 | 109.37266 | 35168 ft | 470 kts | 88° |
| 2026-04-17 15:43 | 31.07413 | 109.44884 | 35172 ft | 469 kts | 88° |
| 2026-04-17 15:44 | 31.07458 | 109.52489 | 35179 ft | 470 kts | 88° |
| 2026-04-17 15:44 | 31.07499 | 109.60140 | 35174 ft | 471 kts | 88° |
| 2026-04-17 15:45 | 31.07506 | 109.67721 | 35198 ft | 471 kts | 90° |
| 2026-04-17 15:45 | 31.07207 | 109.71521 | 35172 ft | 470 kts | 101° |
| 2026-04-17 15:45 | 31.06436 | 109.75207 | 35175 ft | 468 kts | 108° |
| 2026-04-17 15:46 | 31.04344 | 109.82421 | 35181 ft | 471 kts | 111° |
| 2026-04-17 15:46 | 31.02169 | 109.89657 | 35184 ft | 473 kts | 110° |
| 2026-04-17 15:47 | 31.00079 | 109.96925 | 35197 ft | 474 kts | 110° |
| 2026-04-17 15:47 | 30.98038 | 110.04166 | 35190 ft | 472 kts | 109° |
| 2026-04-17 15:48 | 30.95983 | 110.11454 | 35190 ft | 473 kts | 109° |
| 2026-04-17 15:48 | 30.93923 | 110.18738 | 35182 ft | 474 kts | 110° |
| 2026-04-17 15:49 | 30.91859 | 110.26012 | 35194 ft | 473 kts | 109° |
| 2026-04-17 15:49 | 30.89807 | 110.33224 | 35195 ft | 473 kts | 110° |
| 2026-04-17 15:50 | 30.87732 | 110.40497 | 35189 ft | 473 kts | 110° |
| 2026-04-17 15:50 | 30.85652 | 110.47774 | 35176 ft | 473 kts | 110° |
| 2026-04-17 15:51 | 30.83572 | 110.55032 | 35194 ft | 473 kts | 110° |
| 2026-04-17 15:51 | 30.81498 | 110.62250 | 35190 ft | 474 kts | 110° |
| 2026-04-17 15:52 | 30.79391 | 110.69491 | 35185 ft | 473 kts | 110° |
| 2026-04-17 15:52 | 30.77287 | 110.76725 | 35175 ft | 473 kts | 110° |
| 2026-04-17 15:53 | 30.75182 | 110.83986 | 35183 ft | 474 kts | 111° |
| 2026-04-17 15:53 | 30.73092 | 110.91197 | 35169 ft | 473 kts | 111° |
| 2026-04-17 15:54 | 30.70986 | 110.98446 | 35176 ft | 474 kts | 111° |
| 2026-04-17 15:54 | 30.68872 | 111.05699 | 35163 ft | 474 kts | 111° |
| 2026-04-17 15:55 | 30.66753 | 111.12955 | 35162 ft | 474 kts | 111° |
| 2026-04-17 15:55 | 30.64644 | 111.20160 | 35155 ft | 475 kts | 111° |
| 2026-04-17 15:56 | 30.62811 | 111.27531 | 35142 ft | 477 kts | 97° |
| 2026-04-17 15:56 | 30.62735 | 111.31370 | 35145 ft | 476 kts | 84° |
| 2026-04-17 15:56 | 30.63143 | 111.35181 | 35146 ft | 476 kts | 79° |
| 2026-04-17 15:57 | 30.64377 | 111.42753 | 35135 ft | 477 kts | 77° |
| 2026-04-17 15:57 | 30.65397 | 111.50314 | 35138 ft | 478 kts | 83° |
| 2026-04-17 15:58 | 30.65869 | 111.58015 | 35136 ft | 478 kts | 86° |
| 2026-04-17 15:58 | 30.66212 | 111.65734 | 35137 ft | 478 kts | 86° |
| 2026-04-17 15:59 | 30.66575 | 111.73451 | 35132 ft | 478 kts | 86° |
| 2026-04-17 15:59 | 30.66962 | 111.81160 | 35117 ft | 478 kts | 86° |
| 2026-04-17 16:00 | 30.67353 | 111.88847 | 35132 ft | 481 kts | 86° |
| 2026-04-17 16:00 | 30.67755 | 111.96600 | 35131 ft | 481 kts | 85° |
| 2026-04-17 16:01 | 30.68257 | 112.04347 | 35151 ft | 480 kts | 85° |
| 2026-04-17 16:01 | 30.68790 | 112.11956 | 35123 ft | 474 kts | 84° |
| 2026-04-17 16:02 | 30.69320 | 112.19601 | 35121 ft | 476 kts | 85° |
| 2026-04-17 16:02 | 30.69843 | 112.27294 | 35116 ft | 477 kts | 85° |
| 2026-04-17 16:03 | 30.70358 | 112.34974 | 35120 ft | 477 kts | 85° |
| 2026-04-17 16:03 | 30.70865 | 112.42611 | 35119 ft | 477 kts | 85° |
| 2026-04-17 16:04 | 30.71371 | 112.50294 | 35113 ft | 477 kts | 85° |
| 2026-04-17 16:04 | 30.71874 | 112.57992 | 35119 ft | 478 kts | 85° |
| 2026-04-17 16:05 | 30.72372 | 112.65690 | 35118 ft | 478 kts | 85° |
| 2026-04-17 16:05 | 30.72866 | 112.73389 | 35113 ft | 478 kts | 85° |
| 2026-04-17 16:06 | 30.73352 | 112.81032 | 35101 ft | 477 kts | 86° |
| 2026-04-17 16:06 | 30.73837 | 112.88745 | 35109 ft | 479 kts | 86° |
| 2026-04-17 16:07 | 30.74302 | 112.96460 | 35109 ft | 478 kts | 86° |
| 2026-04-17 16:07 | 30.74758 | 113.04176 | 35104 ft | 478 kts | 86° |
| 2026-04-17 16:08 | 30.75222 | 113.11884 | 35099 ft | 477 kts | 87° |
| 2026-04-17 16:08 | 30.75536 | 113.19519 | 35102 ft | 476 kts | 89° |
| 2026-04-17 16:09 | 30.75727 | 113.27217 | 35104 ft | 476 kts | 89° |
| 2026-04-17 16:09 | 30.75909 | 113.34911 | 35101 ft | 476 kts | 89° |
| 2026-04-17 16:10 | 30.76100 | 113.42602 | 35098 ft | 476 kts | 89° |
| 2026-04-17 16:10 | 30.76290 | 113.50259 | 35098 ft | 478 kts | 90° |
| 2026-04-17 16:11 | 30.76478 | 113.57975 | 35095 ft | 478 kts | 90° |
| 2026-04-17 16:11 | 30.76661 | 113.65699 | 35092 ft | 478 kts | 90° |
| 2026-04-17 16:12 | 30.76840 | 113.73420 | 35093 ft | 478 kts | 90° |
| 2026-04-17 16:12 | 30.77012 | 113.81096 | 35087 ft | 480 kts | 90° |
| 2026-04-17 16:13 | 30.77182 | 113.88874 | 35090 ft | 482 kts | 91° |
| 2026-04-17 16:13 | 30.77348 | 113.96651 | 35091 ft | 481 kts | 91° |
| 2026-04-17 16:14 | 30.77689 | 114.08308 | 35081 ft | 481 kts | 90° |
| 2026-04-17 16:14 | 30.78007 | 114.16054 | 35093 ft | 484 kts | 89° |
| 2026-04-17 16:15 | 30.79099 | 114.23757 | 35116 ft | 485 kts | 72° |
| 2026-04-17 16:15 | 30.81489 | 114.31055 | 35094 ft | 482 kts | 67° |
| 2026-04-17 16:16 | 30.84011 | 114.38284 | 35085 ft | 482 kts | 68° |
| 2026-04-17 16:16 | 30.86419 | 114.45538 | 35084 ft | 485 kts | 69° |
| 2026-04-17 16:17 | 30.88813 | 114.52913 | 35084 ft | 488 kts | 69° |
| 2026-04-17 16:17 | 30.91203 | 114.60288 | 35087 ft | 486 kts | 69° |
| 2026-04-17 16:18 | 30.93592 | 114.67662 | 35091 ft | 487 kts | 69° |
| 2026-04-17 16:18 | 30.95977 | 114.75034 | 35095 ft | 484 kts | 69° |
| 2026-04-17 16:19 | 30.98326 | 114.82310 | 35092 ft | 483 kts | 69° |
| 2026-04-17 16:19 | 31.00685 | 114.89633 | 35090 ft | 483 kts | 69° |
| 2026-04-17 16:20 | 31.03033 | 114.96965 | 35091 ft | 483 kts | 69° |
| 2026-04-17 16:20 | 31.05373 | 115.04302 | 35075 ft | 483 kts | 70° |
| 2026-04-17 16:21 | 31.07715 | 115.11639 | 35095 ft | 488 kts | 70° |
| 2026-04-17 16:21 | 31.10093 | 115.19092 | 35100 ft | 490 kts | 70° |
| 2026-04-17 16:22 | 31.12433 | 115.26487 | 35101 ft | 482 kts | 70° |
| 2026-04-17 16:22 | 31.14781 | 115.33816 | 35081 ft | 482 kts | 70° |
| 2026-04-17 16:23 | 31.17163 | 115.41161 | 35110 ft | 486 kts | 70° |
| 2026-04-17 16:23 | 31.19547 | 115.48513 | 35109 ft | 487 kts | 70° |
| 2026-04-17 16:24 | 31.21935 | 115.55902 | 35115 ft | 486 kts | 70° |
| 2026-04-17 16:24 | 31.24315 | 115.63289 | 35118 ft | 486 kts | 70° |
| 2026-04-17 16:25 | 31.26698 | 115.70703 | 35116 ft | 488 kts | 70° |
| 2026-04-17 16:25 | 31.29064 | 115.78089 | 35125 ft | 489 kts | 70° |
| 2026-04-17 16:26 | 31.31431 | 115.85536 | 35123 ft | 488 kts | 70° |
| 2026-04-17 16:26 | 31.33825 | 115.92972 | 35124 ft | 488 kts | 70° |
| 2026-04-17 16:27 | 31.36252 | 116.00404 | 35112 ft | 490 kts | 70° |
| 2026-04-17 16:27 | 31.38675 | 116.07829 | 35118 ft | 494 kts | 70° |
| 2026-04-17 16:28 | 31.41123 | 116.15351 | 35139 ft | 493 kts | 70° |
| 2026-04-17 16:28 | 31.43539 | 116.22798 | 35118 ft | 488 kts | 70° |
| 2026-04-17 16:29 | 31.45949 | 116.30244 | 35114 ft | 490 kts | 70° |
| 2026-04-17 16:29 | 31.48352 | 116.37689 | 35113 ft | 492 kts | 70° |
| 2026-04-17 16:30 | 31.50768 | 116.45188 | 35113 ft | 492 kts | 70° |
| 2026-04-17 16:30 | 31.53179 | 116.52691 | 35112 ft | 492 kts | 70° |
| 2026-04-17 16:31 | 31.55588 | 116.60204 | 35136 ft | 493 kts | 71° |
| 2026-04-17 16:31 | 31.57993 | 116.67723 | 35110 ft | 491 kts | 71° |
| 2026-04-17 16:32 | 31.60371 | 116.75174 | 35110 ft | 491 kts | 71° |
| 2026-04-17 16:32 | 31.62747 | 116.82686 | 35110 ft | 491 kts | 71° |
| 2026-04-17 16:33 | 31.65112 | 116.90201 | 35103 ft | 492 kts | 71° |
| 2026-04-17 16:33 | 31.67501 | 116.97762 | 35117 ft | 496 kts | 71° |
| 2026-04-17 16:34 | 31.69870 | 117.05349 | 35152 ft | 494 kts | 71° |
| 2026-04-17 16:34 | 31.72182 | 117.12861 | 35119 ft | 491 kts | 72° |
| 2026-04-17 16:35 | 31.74499 | 117.20411 | 35098 ft | 492 kts | 72° |
| 2026-04-17 16:35 | 31.76787 | 117.28017 | 35108 ft | 494 kts | 76° |
| 2026-04-17 16:36 | 31.77446 | 117.31942 | 35109 ft | 487 kts | 90° |
| 2026-04-17 16:36 | 31.77487 | 117.35891 | 35112 ft | 481 kts | 99° |
| 2026-04-17 16:36 | 31.76841 | 117.43632 | 35110 ft | 479 kts | 103° |
| 2026-04-17 16:37 | 31.76112 | 117.51418 | 35108 ft | 481 kts | 102° |
| 2026-04-17 16:37 | 31.75506 | 117.59274 | 35113 ft | 483 kts | 101° |
| 2026-04-17 16:38 | 31.74959 | 117.67136 | 35114 ft | 483 kts | 101° |
| 2026-04-17 16:38 | 31.74415 | 117.74999 | 35115 ft | 483 kts | 101° |
| 2026-04-17 16:39 | 31.73865 | 117.82815 | 35115 ft | 483 kts | 101° |
| 2026-04-17 16:39 | 31.73304 | 117.90672 | 35118 ft | 483 kts | 101° |
| 2026-04-17 16:40 | 31.72737 | 117.98531 | 35130 ft | 482 kts | 101° |
| 2026-04-17 16:40 | 31.72171 | 118.06345 | 35116 ft | 479 kts | 101° |
| 2026-04-17 16:41 | 31.71598 | 118.14162 | 35119 ft | 482 kts | 101° |
| 2026-04-17 16:41 | 31.71043 | 118.21949 | 35118 ft | 482 kts | 101° |
| 2026-04-17 16:42 | 31.70496 | 118.29788 | 35120 ft | 482 kts | 101° |
| 2026-04-17 16:42 | 31.69948 | 118.37628 | 35093 ft | 482 kts | 101° |
| 2026-04-17 16:43 | 31.69391 | 118.45488 | 35121 ft | 485 kts | 101° |
| 2026-04-17 16:43 | 31.68831 | 118.53333 | 35120 ft | 485 kts | 101° |
| 2026-04-17 16:44 | 31.68263 | 118.61232 | 35121 ft | 485 kts | 101° |
| 2026-04-17 16:44 | 31.67690 | 118.69129 | 35113 ft | 486 kts | 101° |
| 2026-04-17 16:45 | 31.67108 | 118.77053 | 35122 ft | 488 kts | 101° |
| 2026-04-17 16:45 | 31.66527 | 118.84925 | 35120 ft | 487 kts | 101° |
| 2026-04-17 16:46 | 31.65937 | 118.92854 | 35120 ft | 487 kts | 101° |
| 2026-04-17 16:46 | 31.65334 | 119.00777 | 35121 ft | 489 kts | 101° |
| 2026-04-17 16:47 | 31.64802 | 119.08750 | 35129 ft | 491 kts | 99° |
| 2026-04-17 16:47 | 31.64406 | 119.16696 | 35131 ft | 491 kts | 98° |
| 2026-04-17 16:48 | 31.64060 | 119.24698 | 35129 ft | 491 kts | 98° |
| 2026-04-17 16:48 | 31.63709 | 119.32719 | 35143 ft | 494 kts | 98° |
| 2026-04-17 16:49 | 31.63343 | 119.40751 | 35136 ft | 492 kts | 98° |
| 2026-04-17 16:49 | 31.62965 | 119.48704 | 35134 ft | 491 kts | 98° |
| 2026-04-17 16:50 | 31.62582 | 119.56713 | 35122 ft | 492 kts | 99° |
| 2026-04-17 16:50 | 31.62192 | 119.64755 | 35135 ft | 496 kts | 99° |
| 2026-04-17 16:51 | 31.61812 | 119.72821 | 35129 ft | 495 kts | 98° |
| 2026-04-17 16:51 | 31.61447 | 119.80833 | 35132 ft | 495 kts | 98° |
| 2026-04-17 16:52 | 31.61078 | 119.88901 | 35129 ft | 496 kts | 99° |
| 2026-04-17 16:52 | 31.60702 | 119.96989 | 35134 ft | 496 kts | 99° |
| 2026-04-17 16:53 | 31.60322 | 120.05074 | 35142 ft | 496 kts | 99° |
| 2026-04-17 16:53 | 31.59939 | 120.13102 | 35116 ft | 496 kts | 99° |
| 2026-04-17 16:54 | 31.59546 | 120.21202 | 35137 ft | 498 kts | 99° |
| 2026-04-17 16:54 | 31.59134 | 120.29309 | 35141 ft | 496 kts | 102° |
| 2026-04-17 16:55 | 31.57641 | 120.37037 | 35144 ft | 481 kts | 117° |
| 2026-04-17 16:55 | 31.55365 | 120.44371 | 35134 ft | 478 kts | 120° |
| 2026-04-17 16:56 | 31.53070 | 120.51647 | 35139 ft | 480 kts | 119° |
| 2026-04-17 16:56 | 31.50836 | 120.59022 | 35139 ft | 480 kts | 118° |
| 2026-04-17 16:57 | 31.48632 | 120.66421 | 35139 ft | 481 kts | 118° |
| 2026-04-17 16:57 | 31.46429 | 120.73815 | 35136 ft | 481 kts | 118° |
| 2026-04-17 16:58 | 31.44234 | 120.81152 | 35137 ft | 481 kts | 118° |
| 2026-04-17 16:58 | 31.42020 | 120.88532 | 35136 ft | 481 kts | 118° |
| 2026-04-17 16:59 | 31.39798 | 120.95914 | 35131 ft | 481 kts | 118° |
| 2026-04-17 16:59 | 31.37574 | 121.03289 | 35131 ft | 481 kts | 118° |
| 2026-04-17 17:00 | 31.35340 | 121.10665 | 35129 ft | 481 kts | 119° |
| 2026-04-17 17:00 | 31.33082 | 121.17962 | 35102 ft | 481 kts | 119° |
| 2026-04-17 17:01 | 31.30800 | 121.25310 | 35002 ft | 480 kts | 119° |